Hauptseite
METAR-TAF:

METAR-TAF

Flughäfen :

Belize City, Belize

Philip S. W. Goldson International Airport

Breite: 17-32N, Länge: 088-18W, Höhe: 5 m

Beobachtung

Neuester Wetterbericht von vor 55 Minuten, um 12:00 UTC
Wind 6 kt aus Ost/Südost
Temperatur 28°C
Luftfeuchtigkeit 89%
Luftdruck 1009 hPa
Sichtweite 10 km oder mehr
Aufgelockert bewölkt in der Höhe von 1600 ft

METAR: MZBZ 301200Z 12006KT 9999 SCT016 28/26 A2979 Q1009 NOSIG RMK HZY

Zeit: 06:55 (12:55 UTC)

Prognose

Neuester Wetterbericht von vor 3 Stunden und 55 Minuten, um 09:00 UTC
Gültige Prognose vom 30 um 12 UTC bis 01 um 12 UTC
Wind 12 kt aus Ost/Südost
Sichtweite: 9000 m
Leicht bewölkt in der Höhe von 2300 ft

TAF: MZBZ 300900Z 3012/0112 12012KT 9000 FEW023

Wetterbeobachtungen und Prognosen von mehr als 4000 Flughäfen (METAR und TAF Bericht).

Die verfügbaren Stationen werden durch gelbe und rote Markierungen auf der Karte dargestellt.

Führen Sie die Maus auf sie, um den Namen der Station zu sehen.

Darauf klicken, um die Beobachtung von Wetterbeobachtungen und Prognosen zu sehen.

Um die Karte zu ändern : klicken Sie auf den grünen Tasten mit einem schwarzen Kreuz Zum Vergrößern, auf den grünen Button mit einem Gedankenstrich zu verkleinern, oder auf die grünen Pfeile für benachbarte Karten.


METAR-TAF: